createdAt,value
2022-11-20T00:01:52.356Z,-0.69
2022-11-20T00:04:53.729Z,-0.70
2022-11-20T00:07:55.085Z,-0.69
2022-11-20T00:10:56.534Z,-0.70
2022-11-20T00:14:00.763Z,-0.69
2022-11-20T00:17:02.098Z,-0.72
2022-11-20T00:20:03.653Z,-0.74
2022-11-20T00:23:04.993Z,-0.73
2022-11-20T00:26:09.241Z,-0.69
2022-11-20T00:29:10.642Z,-0.69
2022-11-20T00:32:12.009Z,-0.69
2022-11-20T00:35:13.418Z,-0.65
2022-11-20T00:38:14.763Z,-0.67
2022-11-20T00:41:17.010Z,-0.72
2022-11-20T00:44:18.371Z,-0.70
2022-11-20T00:47:19.702Z,-0.69
2022-11-20T00:50:21.090Z,-0.70
2022-11-20T00:53:22.624Z,-0.71
2022-11-20T00:56:23.965Z,-0.69
2022-11-20T00:59:25.343Z,-0.70
2022-11-20T01:02:26.679Z,-0.69
2022-11-20T01:05:27.995Z,-0.72
2022-11-20T01:08:33.932Z,-0.71
2022-11-20T01:11:38.260Z,-0.74
2022-11-20T01:14:39.595Z,-0.71
2022-11-20T01:17:40.916Z,-0.72
2022-11-20T01:20:42.263Z,-0.76
2022-11-20T01:23:44.708Z,-0.73
2022-11-20T01:26:48.856Z,-0.76
2022-11-20T01:29:50.234Z,-0.73
2022-11-20T01:32:51.595Z,-0.72
2022-11-20T01:35:53.976Z,-0.70
2022-11-20T01:38:58.399Z,-0.71
2022-11-20T01:41:59.740Z,-0.73
2022-11-20T01:45:01.834Z,-0.75
2022-11-20T01:48:03.268Z,-0.75
2022-11-20T01:51:07.632Z,-0.75
2022-11-20T01:54:22.899Z,-0.75
2022-11-20T01:57:29.223Z,-0.78
2022-11-20T02:00:30.879Z,-0.79
2022-11-20T02:03:32.630Z,-0.79
2022-11-20T02:06:41.012Z,-0.76
2022-11-20T02:09:42.483Z,-0.76
2022-11-20T02:12:44.091Z,-0.75
2022-11-20T02:15:45.883Z,-0.75
2022-11-20T02:18:48.479Z,-0.78
2022-11-20T02:22:05.566Z,-0.83
2022-11-20T02:25:08.611Z,-0.79
2022-11-20T02:28:10.912Z,-0.80
2022-11-20T02:31:12.248Z,-0.81
2022-11-20T02:34:13.652Z,-0.81
2022-11-20T02:37:15.497Z,-0.78
2022-11-20T02:40:17.260Z,-0.83
2022-11-20T02:43:18.605Z,-0.85
2022-11-20T02:46:19.941Z,-0.87
2022-11-20T02:49:21.768Z,-0.88
2022-11-20T02:52:23.276Z,-0.87
2022-11-20T02:55:24.627Z,-0.88
2022-11-20T02:58:25.964Z,-0.84
2022-11-20T03:01:27.382Z,-0.86
2022-11-20T03:04:28.807Z,-0.88
2022-11-20T03:07:30.215Z,-0.86
2022-11-20T03:10:31.616Z,-0.83
2022-11-20T03:13:33.601Z,-0.81
2022-11-20T03:16:34.977Z,-0.84
2022-11-20T03:19:36.319Z,-0.85
2022-11-20T03:22:37.698Z,-0.86
2022-11-20T03:25:39.065Z,-0.86
2022-11-20T03:28:42.232Z,-0.87
2022-11-20T03:31:43.620Z,-0.89
2022-11-20T03:34:44.987Z,-0.90
2022-11-20T03:37:46.372Z,-0.94
2022-11-20T03:40:47.708Z,-0.98
2022-11-20T03:44:00.809Z,-0.93
2022-11-20T03:47:02.133Z,-0.93
2022-11-20T03:50:04.657Z,-0.93
2022-11-20T03:53:05.998Z,-0.92
2022-11-20T03:56:08.065Z,-0.92
2022-11-20T03:59:11.261Z,-0.93
2022-11-20T04:02:12.771Z,-0.93
2022-11-20T04:05:14.220Z,-0.94
2022-11-20T04:08:15.615Z,-0.95
2022-11-20T04:11:18.195Z,-0.94
2022-11-20T04:14:19.553Z,-0.95
2022-11-20T04:17:20.917Z,-0.95
2022-11-20T04:20:22.251Z,-0.96
2022-11-20T04:23:28.533Z,-0.97
2022-11-20T04:26:31.206Z,-0.98
2022-11-20T04:29:32.562Z,-0.98
2022-11-20T04:32:33.970Z,-0.99
2022-11-20T04:35:36.134Z,-0.98
2022-11-20T04:38:37.858Z,-0.99
2022-11-20T04:41:39.464Z,-1.01
2022-11-20T04:44:40.980Z,-0.98
2022-11-20T04:47:42.407Z,-0.98
2022-11-20T04:50:43.851Z,-1.02
2022-11-20T04:53:45.273Z,-1.00
2022-11-20T04:56:48.937Z,-0.96
2022-11-20T04:59:50.336Z,-0.96
2022-11-20T05:02:51.844Z,-0.98
2022-11-20T05:05:53.193Z,-0.97
2022-11-20T05:08:54.531Z,-0.99
2022-11-20T05:11:55.874Z,-1.03
2022-11-20T05:14:57.224Z,-1.02
2022-11-20T05:17:58.564Z,-0.99
2022-11-20T05:20:59.933Z,-1.03
2022-11-20T05:24:01.328Z,-1.03
2022-11-20T05:27:02.777Z,-1.05
2022-11-20T05:30:08.152Z,-1.06
2022-11-20T05:33:09.525Z,-1.09
2022-11-20T05:36:12.570Z,-1.08
2022-11-20T05:39:13.934Z,-1.11
2022-11-20T05:42:15.374Z,-1.09
2022-11-20T05:45:16.861Z,-1.10
2022-11-20T05:48:18.258Z,-1.13
2022-11-20T05:51:20.445Z,-1.14
2022-11-20T05:54:21.790Z,-1.13
2022-11-20T05:57:23.147Z,-1.13
2022-11-20T06:00:24.503Z,-1.11
2022-11-20T06:03:25.835Z,-1.10
2022-11-20T06:06:27.323Z,-1.08
2022-11-20T06:09:28.703Z,-1.09
2022-11-20T06:12:32.698Z,-1.06
2022-11-20T06:15:34.050Z,-1.04
2022-11-20T06:18:35.423Z,-1.04
2022-11-20T06:21:36.757Z,-1.04
2022-11-20T06:24:38.127Z,-1.02
2022-11-20T06:27:39.508Z,-1.05
2022-11-20T06:30:46.015Z,-1.05
2022-11-20T06:33:47.905Z,-1.03
2022-11-20T06:36:49.291Z,-1.04
2022-11-20T06:39:50.667Z,-1.04
2022-11-20T06:42:54.014Z,-1.04
2022-11-20T06:45:58.876Z,-1.14
2022-11-20T06:49:00.273Z,-1.08
2022-11-20T06:52:01.644Z,-1.06
2022-11-20T06:55:03.235Z,-1.04
2022-11-20T06:58:04.556Z,-1.05
2022-11-20T07:01:08.542Z,-1.07
2022-11-20T07:04:09.939Z,-1.09
2022-11-20T07:07:11.349Z,-1.10
2022-11-20T07:10:12.914Z,-1.14
2022-11-20T07:13:15.253Z,-1.17
2022-11-20T07:16:16.865Z,-1.12
2022-11-20T07:19:18.314Z,-1.06
2022-11-20T07:22:19.713Z,-1.01
2022-11-20T07:25:21.064Z,-0.97
2022-11-20T07:28:22.422Z,-0.96
2022-11-20T07:31:23.772Z,-0.94
2022-11-20T07:34:25.111Z,-0.95
2022-11-20T07:37:26.456Z,-0.93
2022-11-20T07:40:27.823Z,-0.90
2022-11-20T07:43:29.229Z,-0.84
2022-11-20T07:46:30.611Z,-0.80
2022-11-20T07:49:31.975Z,-0.75
2022-11-20T07:52:33.355Z,-0.64
2022-11-20T07:55:34.684Z,-0.58
2022-11-20T07:58:36.002Z,-0.50
2022-11-20T08:01:37.344Z,-0.46
2022-11-20T08:04:38.700Z,-0.39
2022-11-20T08:07:41.978Z,-0.35
2022-11-20T08:10:43.286Z,-0.38
2022-11-20T08:13:44.827Z,-0.26
2022-11-20T08:16:48.312Z,-0.22
2022-11-20T08:19:49.642Z,-0.16
2022-11-20T08:22:50.964Z,-0.14
2022-11-20T08:25:52.425Z,-0.09
2022-11-20T08:28:55.089Z,-0.01
2022-11-20T08:31:56.416Z,0.13
2022-11-20T08:34:57.873Z,0.20
2022-11-20T08:37:59.185Z,0.23
2022-11-20T08:41:02.981Z,0.31
2022-11-20T08:44:06.449Z,0.27
2022-11-20T08:47:07.765Z,0.24
2022-11-20T08:50:10.574Z,0.18
2022-11-20T08:53:11.894Z,0.17
2022-11-20T08:56:13.296Z,0.19
2022-11-20T09:02:35.994Z,0.29
2022-11-20T09:05:37.325Z,0.43
2022-11-20T09:08:38.717Z,0.54
2022-11-20T09:11:40.051Z,0.56
2022-11-20T09:14:41.398Z,0.61
2022-11-20T09:17:42.742Z,0.67
2022-11-20T09:20:44.092Z,0.71
2022-11-20T09:23:45.446Z,0.75
2022-11-20T09:26:46.863Z,0.82
2022-11-20T09:29:48.228Z,0.93
2022-11-20T09:32:49.693Z,0.99
2022-11-20T09:35:51.252Z,1.05
2022-11-20T09:38:52.650Z,0.99
2022-11-20T09:42:03.395Z,1.05
2022-11-20T09:45:24.514Z,1.19
2022-11-20T09:48:47.112Z,1.40
2022-11-20T09:52:25.539Z,1.92
2022-11-20T09:55:30.130Z,2.37
2022-11-20T09:58:39.444Z,2.45
2022-11-20T10:01:40.780Z,2.49
2022-11-20T10:04:48.735Z,2.81
2022-11-20T10:08:03.712Z,2.94
2022-11-20T10:11:35.589Z,3.17
2022-11-20T10:14:51.510Z,2.89
2022-11-20T10:18:05.054Z,2.77
2022-11-20T10:21:12.447Z,2.66
2022-11-20T10:24:16.784Z,2.71
2022-11-20T10:27:46.937Z,2.50
2022-11-20T10:30:58.058Z,2.46
2022-11-20T10:34:23.481Z,2.54
2022-11-20T10:37:30.030Z,2.55
2022-11-20T10:40:48.901Z,2.48
2022-11-20T10:43:54.914Z,2.43
2022-11-20T10:46:56.565Z,2.47
2022-11-20T10:50:03.922Z,2.60
2022-11-20T10:53:25.975Z,2.50
2022-11-20T10:56:48.482Z,2.50
2022-11-20T11:00:07.222Z,2.34
2022-11-20T11:03:29.932Z,2.41
2022-11-20T11:06:44.672Z,2.47
2022-11-20T11:09:53.131Z,2.45
2022-11-20T11:12:54.515Z,2.43
2022-11-20T11:15:56.604Z,2.41
2022-11-20T11:19:12.984Z,2.42
2022-11-20T11:22:19.158Z,2.36
2022-11-20T11:25:23.460Z,2.50
2022-11-20T11:28:26.071Z,2.62
2022-11-20T11:31:30.168Z,3.17
2022-11-20T11:34:31.543Z,3.58
2022-11-20T11:37:38.137Z,3.71
2022-11-20T11:40:41.405Z,3.79
2022-11-20T11:43:53.226Z,3.70
2022-11-20T11:46:57.165Z,3.19
2022-11-20T11:50:10.609Z,3.36
2022-11-20T11:53:21.909Z,3.39
2022-11-20T11:56:24.168Z,3.73
2022-11-20T11:59:55.467Z,4.05
2022-11-20T12:03:22.574Z,3.36
2022-11-20T12:06:26.017Z,2.76
2022-11-20T12:09:35.226Z,1.94
2022-11-20T12:12:44.709Z,1.74
2022-11-20T12:15:47.802Z,1.57
2022-11-20T12:18:51.831Z,1.47
2022-11-20T12:22:06.290Z,1.36
2022-11-20T12:25:23.103Z,1.28
2022-11-20T12:28:43.312Z,1.17
2022-11-20T12:32:05.454Z,1.06
2022-11-20T12:35:32.440Z,1.03
2022-11-20T12:39:02.160Z,0.90
2022-11-20T12:42:14.439Z,0.84
2022-11-20T12:45:45.192Z,0.82
2022-11-20T12:48:58.576Z,0.80
2022-11-20T12:52:45.328Z,0.76
2022-11-20T12:56:01.238Z,0.71
2022-11-20T12:59:12.939Z,0.65
2022-11-20T13:02:17.002Z,0.64
2022-11-20T13:05:39.552Z,0.66
2022-11-20T13:08:44.261Z,0.72
2022-11-20T13:12:04.121Z,0.63
2022-11-20T13:15:23.160Z,0.56
2022-11-20T13:18:25.174Z,0.58
2022-11-20T13:21:38.861Z,0.62
2022-11-20T13:24:40.197Z,0.60
2022-11-20T13:27:48.778Z,0.67
2022-11-20T13:30:55.001Z,0.76
2022-11-20T13:33:57.585Z,0.77
2022-11-20T13:37:00.422Z,0.82
2022-11-20T13:40:10.713Z,0.83
2022-11-20T13:43:27.221Z,0.95
2022-11-20T13:46:41.174Z,1.13
2022-11-20T13:49:45.410Z,1.28
2022-11-20T13:53:01.857Z,1.40
2022-11-20T13:56:08.838Z,1.38
2022-11-20T13:59:44.358Z,1.38
2022-11-20T14:03:00.551Z,1.33
2022-11-20T14:06:13.315Z,1.35
2022-11-20T14:09:34.649Z,1.40
2022-11-20T14:12:35.986Z,1.43
2022-11-20T14:15:41.833Z,1.40
2022-11-20T14:18:45.894Z,1.42
2022-11-20T14:21:54.080Z,1.44
2022-11-20T14:25:21.047Z,1.47
2022-11-20T14:28:32.110Z,1.52
2022-11-20T14:31:33.487Z,1.55
2022-11-20T14:34:40.081Z,1.58
2022-11-20T14:37:42.098Z,1.51
2022-11-20T14:40:43.610Z,1.46
2022-11-20T14:43:54.217Z,1.45
2022-11-20T14:46:57.568Z,1.46
2022-11-20T14:50:01.274Z,1.45
2022-11-20T14:53:04.888Z,1.43
2022-11-20T14:56:06.245Z,1.37
2022-11-20T14:59:09.238Z,1.37
2022-11-20T15:02:12.920Z,1.36
2022-11-20T15:05:15.477Z,1.33
2022-11-20T15:08:17.629Z,1.33
2022-11-20T15:11:23.516Z,1.35
2022-11-20T15:14:27.269Z,1.41
2022-11-20T15:17:28.996Z,1.31
2022-11-20T15:20:33.215Z,1.35
2022-11-20T15:23:35.320Z,1.37
2022-11-20T15:26:38.761Z,1.41
2022-11-20T15:29:40.046Z,1.18
2022-11-20T15:32:42.063Z,1.24
2022-11-20T15:35:44.526Z,1.26
2022-11-20T15:38:46.090Z,1.16
2022-11-20T15:41:47.810Z,1.07
2022-11-20T15:44:49.142Z,1.08
2022-11-20T15:47:50.490Z,1.08
2022-11-20T15:51:03.249Z,1.07
2022-11-20T15:54:13.786Z,1.03
2022-11-20T15:57:15.175Z,1.07
2022-11-20T16:00:22.162Z,0.96
2022-11-20T16:03:25.054Z,0.87
2022-11-20T16:06:26.422Z,0.83
2022-11-20T16:09:27.767Z,0.83
2022-11-20T16:12:29.114Z,0.80
2022-11-20T16:15:30.923Z,0.76
2022-11-20T16:18:33.457Z,0.76
2022-11-20T16:21:34.799Z,0.71
2022-11-20T16:24:36.163Z,0.68
2022-11-20T16:27:37.484Z,0.64
2022-11-20T16:30:39.301Z,0.52
2022-11-20T16:33:41.251Z,0.30
2022-11-20T16:36:44.052Z,0.09
2022-11-20T16:39:45.381Z,0.02
2022-11-20T16:42:46.717Z,-0.14
2022-11-20T16:45:48.086Z,-0.14
2022-11-20T16:48:58.060Z,-0.14
2022-11-20T16:51:59.740Z,-0.23
2022-11-20T16:55:01.085Z,-0.23
2022-11-20T16:58:02.664Z,-0.31
2022-11-20T17:01:11.734Z,-0.43
2022-11-20T17:04:13.218Z,-0.52
2022-11-20T17:07:14.747Z,-0.60
2022-11-20T17:10:16.265Z,-0.65
2022-11-20T17:13:17.612Z,-0.72
2022-11-20T17:16:21.016Z,-0.70
2022-11-20T17:19:22.276Z,-0.83
2022-11-20T17:22:23.650Z,-0.76
2022-11-20T17:25:25.037Z,-0.81
2022-11-20T17:28:26.423Z,-0.86
2022-11-20T17:31:29.019Z,-0.82
2022-11-20T17:34:30.379Z,-0.83
2022-11-20T17:37:31.734Z,-0.78
2022-11-20T17:40:33.114Z,-0.82
2022-11-20T17:43:36.027Z,-0.82
2022-11-20T17:46:37.446Z,-0.82
2022-11-20T17:49:38.823Z,-0.78
2022-11-20T17:52:40.179Z,-0.77
2022-11-20T17:55:41.519Z,-0.78
2022-11-20T17:58:43.491Z,-0.71
2022-11-20T18:01:45.093Z,-0.71
2022-11-20T18:04:46.459Z,-0.79
2022-11-20T18:07:51.571Z,-0.77
2022-11-20T18:10:52.995Z,-0.69
2022-11-20T18:13:57.127Z,-0.64
2022-11-20T18:17:01.651Z,-0.58
2022-11-20T18:23:25.045Z,-0.58
2022-11-20T18:26:26.603Z,-0.54
2022-11-20T18:29:28.423Z,-0.54
2022-11-20T18:32:29.788Z,-0.54
2022-11-20T18:35:31.131Z,-0.56
2022-11-20T18:38:32.515Z,-0.56
2022-11-20T18:41:33.848Z,-0.53
2022-11-20T18:44:35.233Z,-0.53
2022-11-20T18:47:36.877Z,-0.50
2022-11-20T18:50:38.238Z,-0.50
2022-11-20T18:53:44.346Z,-0.56
2022-11-20T18:56:48.461Z,-0.58
2022-11-20T18:59:50.034Z,-0.58
2022-11-20T19:02:54.161Z,-0.57
2022-11-20T19:05:55.511Z,-0.54
2022-11-20T19:08:56.877Z,-0.55
2022-11-20T19:11:59.360Z,-0.57
2022-11-20T19:15:00.704Z,-0.58
2022-11-20T19:18:02.030Z,-0.58
2022-11-20T19:21:14.508Z,-0.58
2022-11-20T19:24:15.831Z,-0.57
2022-11-20T19:27:17.215Z,-0.55
2022-11-20T19:30:18.637Z,-0.52
2022-11-20T19:33:20.090Z,-0.48
2022-11-20T19:36:24.814Z,-0.49
2022-11-20T19:39:26.571Z,-0.57
2022-11-20T19:42:28.225Z,-0.49
2022-11-20T19:45:29.551Z,-0.46
2022-11-20T19:48:36.245Z,-0.46
2022-11-20T19:51:39.226Z,-0.48
2022-11-20T19:54:40.571Z,-0.55
2022-11-20T19:57:41.903Z,-0.63
2022-11-20T20:00:43.242Z,-0.60
2022-11-20T20:03:46.011Z,-0.59
2022-11-20T20:06:47.342Z,-0.69
2022-11-20T20:09:48.687Z,-0.66
2022-11-20T20:12:49.999Z,-0.60
2022-11-20T20:15:52.183Z,-0.60
2022-11-20T20:19:01.247Z,-0.63
2022-11-20T20:22:02.606Z,-0.61
2022-11-20T20:25:04.284Z,-0.63
2022-11-20T20:28:05.644Z,-0.67
2022-11-20T20:31:12.648Z,-0.69
2022-11-20T20:34:14.029Z,-0.76
2022-11-20T20:37:15.366Z,-0.84
2022-11-20T20:40:16.797Z,-0.84
2022-11-20T20:43:18.158Z,-0.86
2022-11-20T20:46:19.894Z,-0.94
2022-11-20T20:49:21.630Z,-0.97
2022-11-20T20:52:23.863Z,-0.97
2022-11-20T20:55:25.215Z,-1.03
2022-11-20T20:58:28.233Z,-1.10
2022-11-20T21:01:29.728Z,-1.17
2022-11-20T21:04:31.243Z,-1.22
2022-11-20T21:07:32.650Z,-1.22
2022-11-20T21:10:34.058Z,-1.27
2022-11-20T21:13:36.840Z,-1.28
2022-11-20T21:16:38.177Z,-1.35
2022-11-20T21:19:39.501Z,-1.42
2022-11-20T21:22:40.848Z,-1.46
2022-11-20T21:25:42.168Z,-1.46
2022-11-20T21:28:43.556Z,-1.42
2022-11-20T21:31:45.109Z,-1.42
2022-11-20T21:34:46.490Z,-1.37
2022-11-20T21:37:47.830Z,-1.40
2022-11-20T21:40:49.285Z,-1.42
2022-11-20T21:44:15.852Z,-1.44
2022-11-20T21:47:12.894Z,-1.55
2022-11-20T21:50:14.462Z,-1.60
2022-11-20T21:53:15.779Z,-1.65
2022-11-20T21:56:20.794Z,-1.72
2022-11-20T21:59:22.443Z,-1.82
2022-11-20T22:02:23.777Z,-1.90
2022-11-20T22:05:25.104Z,-1.96
2022-11-20T22:08:26.639Z,-2.01
2022-11-20T22:11:27.978Z,-2.08
2022-11-20T22:14:29.320Z,-2.16
2022-11-20T22:17:30.684Z,-2.24
2022-11-20T22:20:32.020Z,-2.28
2022-11-20T22:23:34.076Z,-2.31
2022-11-20T22:26:40.233Z,-2.35
2022-11-20T22:29:41.920Z,-2.42
2022-11-20T22:32:43.312Z,-2.47
2022-11-20T22:35:44.640Z,-2.47
2022-11-20T22:38:46.358Z,-2.52
2022-11-20T22:41:47.705Z,-2.52
2022-11-20T22:44:49.021Z,-2.57
2022-11-20T22:47:50.368Z,-2.66
2022-11-20T22:50:51.682Z,-2.70
2022-11-20T22:53:53.394Z,-2.73
2022-11-20T22:56:54.714Z,-2.77
2022-11-20T22:59:56.068Z,-2.76
2022-11-20T23:02:57.410Z,-2.70
2022-11-20T23:05:59.986Z,-2.78
2022-11-20T23:09:02.700Z,-2.85
2022-11-20T23:12:04.294Z,-2.85
2022-11-20T23:15:06.399Z,-2.82
2022-11-20T23:18:07.749Z,-2.74
2022-11-20T23:21:18.788Z,-2.63
2022-11-20T23:24:20.123Z,-2.52
2022-11-20T23:27:23.806Z,-2.37
2022-11-20T23:30:28.707Z,-2.29
2022-11-20T23:33:30.666Z,-2.29
2022-11-20T23:36:32.617Z,-2.36
2022-11-20T23:39:33.976Z,-2.47
2022-11-20T23:42:35.310Z,-2.52
2022-11-20T23:45:38.563Z,-2.57
2022-11-20T23:48:39.903Z,-2.57
2022-11-20T23:51:41.331Z,-2.55
2022-11-20T23:54:42.696Z,-2.55
2022-11-20T23:57:44.051Z,-2.68
